Time;durP1;ratioP1;P1;durP2;ratioP2;P2;SDS_P1;SDS_P2;PMS_P1;PMS_P2;Temp;Humidity;BMP_temperature;BMP_pressure;BME280_temperature;BME280_humidity;BME280_pressure;Samples;Min_cycle;Max_cycle;Signal;HPM_P1;HPM_P2
2023/06/29 00:01:49;;;;;;;8.73;5.67;;;;;;;14.39;100.00;99743.13;5028536;28;20792;-59
2023/06/29 00:04:21;;;;;;;6.93;4.77;;;;;;;14.38;100.00;99736.16;5040309;28;20306;-59
2023/06/29 00:06:54;;;;;;;6.63;4.90;;;;;;;14.41;100.00;99736.03;5029749;28;20330;-60
2023/06/29 00:09:25;;;;;;;6.90;4.80;;;;;;;14.23;100.00;99727.97;5037346;28;20684;-57
2023/06/29 00:11:55;;;;;;;5.43;4.00;;;;;;;14.23;100.00;99748.13;5029886;28;20281;-57
2023/06/29 00:14:28;;;;;;;4.97;3.90;;;;;;;14.23;100.00;99727.97;5016145;28;20288;-63
2023/06/29 00:17:01;;;;;;;6.10;3.67;;;;;;;14.27;100.00;99727.84;5028986;28;20852;-58
2023/06/29 00:19:33;;;;;;;6.27;4.30;;;;;;;14.32;100.00;99739.00;5039663;28;20328;-61
2023/06/29 00:22:04;;;;;;;4.93;4.17;;;;;;;14.44;100.00;99741.16;5029020;28;20287;-59
2023/06/29 00:24:42;;;;;;;4.77;3.67;;;;;;;14.53;100.00;99739.94;5039406;28;20279;-59
2023/06/29 00:27:13;;;;;;;6.67;4.40;;;;;;;14.52;100.00;99739.06;5028934;28;20778;-60
2023/06/29 00:29:45;;;;;;;6.17;4.20;;;;;;;14.55;100.00;99732.84;5029096;28;20294;-62
2023/06/29 00:32:16;;;;;;;5.67;4.23;;;;;;;14.58;100.00;99741.47;5037471;28;20303;-59
2023/06/29 00:34:48;;;;;;;7.47;4.63;;;;;;;14.67;100.00;99737.59;5028677;28;20319;-63
2023/06/29 00:37:19;;;;;;;10.63;4.10;;;;;;;14.63;100.00;99734.25;5039241;28;20397;-61
2023/06/29 00:39:50;;;;;;;7.30;4.57;;;;;;;14.53;100.00;99732.06;5028354;28;20287;-60
2023/06/29 00:42:20;;;;;;;5.00;3.43;;;;;;;14.46;100.00;99742.81;5039529;28;20275;-58
2023/06/29 00:44:51;;;;;;;5.33;3.80;;;;;;;14.42;100.00;99737.72;5029445;28;20326;-62
2023/06/29 00:47:22;;;;;;;5.93;4.03;;;;;;;14.37;100.00;99734.44;5039109;28;20287;-60
2023/06/29 00:49:55;;;;;;;5.43;3.90;;;;;;;14.37;100.00;99737.91;5028931;28;21070;-61
2023/06/29 00:52:26;;;;;;;6.23;4.00;;;;;;;14.38;100.00;99742.25;5039506;28;20738;-61
2023/06/29 00:54:58;;;;;;;6.60;4.17;;;;;;;14.26;100.00;99728.75;5029308;28;20911;-62
2023/06/29 00:57:32;;;;;;;6.07;4.07;;;;;;;14.18;100.00;99729.91;5039826;28;21154;-61
2023/06/29 01:00:05;;;;;;;5.57;3.80;;;;;;;14.27;100.00;99738.34;5028499;28;20345;-61
2023/06/29 01:02:40;;;;;;;22.67;5.40;;;;;;;14.31;100.00;99750.47;5032680;28;20289;-58
2023/06/29 01:05:14;;;;;;;5.63;4.10;;;;;;;14.28;100.00;99750.56;5039354;28;20839;-61
2023/06/29 01:07:51;;;;;;;7.90;4.50;;;;;;;14.19;100.00;99742.13;5028197;28;20344;-59
2023/06/29 01:10:28;;;;;;;6.10;4.27;;;;;;;14.10;100.00;99747.75;5038881;28;20318;-62
2023/06/29 01:13:00;;;;;;;9.30;5.10;;;;;;;14.19;100.00;99747.38;5028298;28;20286;-61
2023/06/29 01:15:32;;;;;;;7.03;5.13;;;;;;;14.24;100.00;99750.69;5039078;28;20287;-62
2023/06/29 01:18:05;;;;;;;5.87;4.00;;;;;;;14.23;100.00;99748.13;5015819;28;20348;-62
2023/06/29 01:20:39;;;;;;;7.53;4.40;;;;;;;14.15;100.00;99739.69;5023527;28;20302;-59
2023/06/29 01:23:12;;;;;;;10.67;4.37;;;;;;;14.22;100.00;99747.25;5030431;28;20386;-65
2023/06/29 01:25:45;;;;;;;7.57;4.97;;;;;;;14.23;100.00;99753.41;5024854;28;20671;-59
2023/06/29 01:28:16;;;;;;;8.13;4.97;;;;;;;14.13;100.00;99737.13;5036836;28;20291;-60
2023/06/29 01:30:48;;;;;;;8.33;4.87;;;;;;;14.17;100.00;99737.84;5026126;28;20310;-58
2023/06/29 01:33:21;;;;;;;7.93;4.33;;;;;;;14.13;100.00;99752.91;5035918;28;20387;-60
2023/06/29 01:35:57;;;;;;;6.90;5.00;;;;;;;14.06;100.00;99759.31;5027278;28;20372;-61
2023/06/29 01:38:32;;;;;;;5.97;4.80;;;;;;;14.05;100.00;99764.59;5038471;28;20287;-61
2023/06/29 01:41:08;;;;;;;6.07;4.10;;;;;;;14.00;100.00;99762.16;5025176;28;20413;-61
2023/06/29 01:43:39;;;;;;;7.57;4.73;;;;;;;13.87;100.00;99742.53;5027284;28;20290;-59
2023/06/29 01:46:10;;;;;;;6.20;4.33;;;;;;;13.96;100.00;99758.78;5038061;28;20306;-58
2023/06/29 01:48:42;;;;;;;5.80;4.13;;;;;;;13.90;100.00;99766.03;5026338;28;20283;-60
2023/06/29 01:51:13;;;;;;;7.40;4.27;;;;;;;13.62;100.00;99725.06;5038363;28;20299;-59
2023/06/29 01:53:44;;;;;;;9.13;3.77;;;;;;;13.82;100.00;99766.34;5027232;28;20298;-62
2023/06/29 01:56:18;;;;;;;8.50;4.00;;;;;;;13.55;100.00;99723.59;5038047;28;20765;-61
2023/06/29 01:58:48;;;;;;;5.10;3.07;;;;;;;13.73;100.00;99764.91;5027503;28;21559;-61
2023/06/29 02:01:19;;;;;;;9.57;4.47;;;;;;;13.58;100.00;99749.75;5038324;28;20381;-59
2023/06/29 02:03:50;;;;;;;8.00;3.93;;;;;;;13.67;100.00;99764.28;5026613;28;20290;-60
2023/06/29 02:06:21;;;;;;;7.53;4.10;;;;;;;13.63;100.00;99758.31;5037613;28;21157;-60
2023/06/29 02:08:52;;;;;;;8.60;4.17;;;;;;;13.67;100.00;99770.38;5028201;28;20297;-63
2023/06/29 02:11:24;;;;;;;6.43;4.30;;;;;;;13.61;100.00;99764.53;5037724;28;20283;-59
2023/06/29 02:13:54;;;;;;;7.50;4.32;;;;;;;13.55;100.00;99761.22;5027397;28;20277;-63
2023/06/29 02:16:25;;;;;;;7.73;4.60;;;;;;;13.54;100.00;99758.63;5037437;28;20090;-60
2023/06/29 02:18:56;;;;;;;6.57;4.23;;;;;;;13.54;100.00;99758.63;5027630;28;21125;-64
2023/06/29 02:21:28;;;;;;;6.60;4.10;;;;;;;13.56;100.00;99759.44;5038113;28;20800;-60
2023/06/29 02:23:59;;;;;;;7.33;4.20;;;;;;;13.55;100.00;99755.09;5027786;28;20386;-63
2023/06/29 02:26:31;;;;;;;9.93;4.70;;;;;;;13.55;100.00;99765.59;5038340;28;20317;-62
2023/06/29 02:29:03;;;;;;;9.40;4.00;;;;;;;13.58;100.00;99761.09;5027316;28;20049;-61
2023/06/29 02:31:33;;;;;;;12.40;4.57;;;;;;;13.57;100.00;99763.75;5036929;28;20650;-61
2023/06/29 02:34:04;;;;;;;10.37;4.33;;;;;;;13.20;100.00;99717.81;5025059;28;20406;-60
2023/06/29 02:36:35;;;;;;;10.27;4.63;;;;;;;13.56;100.00;99772.56;5035180;28;20382;-61
2023/06/29 02:39:06;;;;;;;8.40;4.80;;;;;;;13.47;100.00;99757.13;5036194;28;20279;-61
2023/06/29 02:41:38;;;;;;;8.30;5.35;;;;;;;13.56;100.00;99762.06;5027165;28;20279;-61
2023/06/29 02:44:09;;;;;;;11.67;6.03;;;;;;;13.61;100.00;99764.53;5036440;28;20058;-59
2023/06/29 02:46:39;;;;;;;8.03;5.30;;;;;;;13.65;100.00;99756.44;5025953;28;20381;-62
2023/06/29 02:49:11;;;;;;;7.10;4.72;;;;;;;13.54;100.00;99769.13;5035894;28;20279;-62
2023/06/29 02:51:42;;;;;;;11.57;5.30;;;;;;;13.45;100.00;99762.44;5026257;28;20044;-61
2023/06/29 02:54:13;;;;;;;9.43;6.40;;;;;;;13.46;100.00;99758.06;5036804;28;20797;-62
2023/06/29 02:56:47;;;;;;;8.18;5.60;;;;;;;13.53;100.00;99767.44;5026601;28;20290;-61
2023/06/29 02:59:24;;;;;;;8.68;5.22;;;;;;;13.47;100.00;99757.13;5033267;28;20056;-60
2023/06/29 03:01:58;;;;;;;8.77;5.07;;;;;;;13.37;100.00;99762.72;5024383;28;20066;-59
2023/06/29 03:04:32;;;;;;;9.17;5.60;;;;;;;13.33;100.00;99755.03;5040128;28;20294;-59
2023/06/29 03:07:05;;;;;;;6.77;5.33;;;;;;;13.34;100.00;99760.19;5028536;28;20279;-60
2023/06/29 03:09:39;;;;;;;12.97;6.10;;;;;;;13.32;100.00;99764.66;5030149;28;21105;-59
2023/06/29 03:12:21;;;;;;;7.70;5.47;;;;;;;13.25;100.00;99773.59;5038591;28;20310;-61
2023/06/29 03:15:01;;;;;;;11.15;5.47;;;;;;;13.23;100.00;99771.94;5031146;28;20054;-61
2023/06/29 03:17:49;;;;;;;9.63;6.45;;;;;;;13.26;100.00;99769.25;5030469;28;20044;-59
2023/06/29 03:20:28;;;;;;;8.23;5.60;;;;;;;13.24;100.00;99757.94;5040114;28;20064;-62
2023/06/29 03:23:02;;;;;;;10.43;6.53;;;;;;;13.32;100.00;99756.78;5030768;28;21057;-58
2023/06/29 03:25:35;;;;;;;10.07;7.00;;;;;;;13.31;100.00;99752.44;5040232;28;20286;-63
2023/06/29 03:28:12;;;;;;;10.97;6.20;;;;;;;13.27;100.00;99750.84;5030543;28;20789;-59
2023/06/29 03:30:46;;;;;;;8.90;5.80;;;;;;;13.18;100.00;99772.13;5030625;28;20289;-64
2023/06/29 03:33:25;;;;;;;7.27;5.07;;;;;;;13.14;100.00;99770.53;5040522;28;20390;-61
2023/06/29 03:36:11;;;;;;;11.82;4.90;;;;;;;12.91;100.00;99738.06;5030121;28;20291;-59
2023/06/29 03:38:45;;;;;;;6.18;4.57;;;;;;;13.13;100.00;99776.69;5030541;28;20040;-60
2023/06/29 03:41:21;;;;;;;5.78;3.97;;;;;;;13.16;100.00;99779.19;5039803;28;20046;-62
2023/06/29 03:44:03;;;;;;;5.83;4.10;;;;;;;13.07;100.00;99769.00;5030195;28;20052;-59
2023/06/29 03:46:37;;;;;;;9.07;4.88;;;;;;;13.04;100.00;99775.22;5039807;28;20358;-60
2023/06/29 03:49:11;;;;;;;8.23;5.50;;;;;;;13.09;100.00;99769.81;5017338;28;20136;-58
2023/06/29 03:51:44;;;;;;;7.17;4.07;;;;;;;13.04;100.00;99774.38;5021398;28;20341;-60
2023/06/29 03:54:24;;;;;;;5.95;3.45;;;;;;;12.96;100.00;99777.25;5028175;28;20290;-62
2023/06/29 03:56:58;;;;;;;9.57;4.13;;;;;;;12.84;100.00;99768.03;5021681;28;20590;-60
2023/06/29 03:59:31;;;;;;;5.80;3.78;;;;;;;12.80;100.00;99771.66;5031673;28;20053;-59
2023/06/29 04:02:05;;;;;;;7.28;4.03;;;;;;;12.82;100.00;99769.00;5017917;28;20057;-61
2023/06/29 04:04:41;;;;;;;11.45;4.53;;;;;;;12.82;100.00;99769.84;5022456;28;20147;-59
2023/06/29 04:07:14;;;;;;;9.52;4.50;;;;;;;12.87;100.00;99767.91;5018291;28;20052;-60
2023/06/29 04:09:47;;;;;;;5.97;3.55;;;;;;;12.79;100.00;99774.34;5010680;28;20051;-62
2023/06/29 04:12:22;;;;;;;6.43;3.28;;;;;;;12.81;100.00;99777.78;5025359;28;20063;-62
2023/06/29 04:14:59;;;;;;;4.65;3.10;;;;;;;12.72;100.00;99773.69;5026365;28;20060;-60
2023/06/29 04:17:34;;;;;;;5.90;3.50;;;;;;;12.72;100.00;99777.16;5040178;28;20072;-58
2023/06/29 04:20:09;;;;;;;6.00;2.85;;;;;;;12.65;100.00;99782.66;5029747;28;20064;-59
2023/06/29 04:22:47;;;;;;;3.30;2.75;;;;;;;12.58;100.00;99775.88;5029170;28;20123;-61
2023/06/29 04:25:23;;;;;;;3.28;2.55;;;;;;;12.51;100.00;99773.47;5039481;28;20130;-63
2023/06/29 04:27:55;;;;;;;4.47;2.83;;;;;;;12.56;100.00;99782.97;5028814;28;20730;-62
2023/06/29 04:30:30;;;;;;;4.28;2.22;;;;;;;12.57;100.00;99800.41;5039233;28;20056;-61
2023/06/29 04:33:09;;;;;;;5.78;2.40;;;;;;;12.47;100.00;99795.44;5022052;28;20101;-62
2023/06/29 04:35:43;;;;;;;5.60;2.45;;;;;;;12.46;100.00;99798.13;5029769;28;20063;-60
2023/06/29 04:38:17;;;;;;;3.50;2.05;;;;;;;12.45;100.00;99781.50;5040058;28;20132;-63
2023/06/29 04:40:53;;;;;;;3.58;2.30;;;;;;;12.52;100.00;99788.28;5029065;28;20490;-62
2023/06/29 04:43:26;;;;;;;5.75;2.70;;;;;;;12.55;100.00;99786.47;5039445;28;20088;-60
2023/06/29 04:46:03;;;;;;;4.85;2.10;;;;;;;12.61;100.00;99802.03;5029581;28;20064;-59
2023/06/29 04:48:38;;;;;;;2.92;2.28;;;;;;;12.59;100.00;99782.84;5036983;28;20048;-59
2023/06/29 04:51:12;;;;;;;4.18;2.22;;;;;;;12.61;100.00;99788.91;5039468;28;20612;-63
2023/06/29 04:53:49;;;;;;;3.00;2.15;;;;;;;12.57;100.00;99789.91;5029296;28;20051;-61
2023/06/29 04:56:22;;;;;;;2.47;1.80;;;;;;;12.46;100.00;99778.00;5022797;28;20482;-62
2023/06/29 04:58:59;;;;;;;5.18;2.00;;;;;;;12.52;100.00;99788.28;5026823;28;20052;-62
2023/06/29 05:01:36;;;;;;;5.68;1.83;;;;;;;12.62;100.00;99788.00;5039278;28;20060;-58
2023/06/29 05:04:15;;;;;;;2.83;1.70;;;;;;;12.70;100.00;99775.50;5028151;28;20049;-61
2023/06/29 05:06:58;;;;;;;1.95;1.40;;;;;;;12.80;100.00;99782.13;5028261;28;20475;-60
2023/06/29 05:09:37;;;;;;;1.90;1.45;;;;;;;12.89;100.00;99792.31;5039067;28;20056;-62
2023/06/29 05:12:18;;;;;;;3.42;1.30;;;;;;;12.82;100.00;99790.81;5022171;28;20498;-61
2023/06/29 05:15:15;;;;;;;2.30;1.40;;;;;;;12.86;100.00;99781.94;5028997;28;20049;-62
2023/06/29 05:18:21;;;;;;;3.83;1.35;;;;;;;12.58;100.00;99739.19;5002522;28;20062;-61
2023/06/29 05:21:08;;;;;;;2.67;1.10;;;;;;;12.86;100.00;99781.94;5011546;28;21210;-64
2023/06/29 05:23:46;;;;;;;3.03;1.55;;;;;;;12.88;100.00;99789.75;5028683;28;20045;-61
2023/06/29 05:26:19;;;;;;;3.65;1.42;;;;;;;12.57;100.00;99732.25;5039338;28;20060;-61
2023/06/29 05:28:56;;;;;;;4.28;1.20;;;;;;;12.92;100.00;99786.97;5028505;28;20094;-66
2023/06/29 05:31:36;;;;;;;4.40;1.30;;;;;;;12.88;100.00;99785.38;5038561;28;20052;-61
2023/06/29 05:34:11;;;;;;;1.33;1.10;;;;;;;12.92;100.00;99771.25;5013453;28;20056;-62
2023/06/29 05:36:47;;;;;;;1.48;0.95;;;;;;;12.98;100.00;99777.19;5020183;28;20045;-64
2023/06/29 05:39:22;;;;;;;6.05;1.25;;;;;;;13.04;100.00;99779.63;5036992;28;20056;-62
2023/06/29 05:41:56;;;;;;;1.10;0.80;;;;;;;13.04;100.00;99782.25;5028269;28;20948;-62
2023/06/29 05:44:38;;;;;;;1.27;1.10;;;;;;;13.04;100.00;99780.47;5013078;28;20115;-58
2023/06/29 05:47:11;;;;;;;3.78;1.15;;;;;;;12.92;100.00;99781.72;5028016;28;20048;-60
2023/06/29 05:49:47;;;;;;;4.53;1.00;;;;;;;12.70;100.00;99786.84;5026676;28;20048;-64
2023/06/29 05:52:26;;;;;;;3.47;1.42;;;;;;;12.60;100.00;99795.03;5038221;28;20071;-62
2023/06/29 05:54:59;;;;;;;2.67;1.10;;;;;;;12.55;100.00;99789.94;5025375;28;20060;-61
2023/06/29 05:57:31;;;;;;;1.40;1.00;;;;;;;12.47;100.00;99784.94;5037543;28;20075;-62
2023/06/29 06:00:08;;;;;;;1.80;1.10;;;;;;;12.44;100.00;99790.28;5027444;28;20064;-64
2023/06/29 06:02:45;;;;;;;1.27;0.93;;;;;;;12.23;100.00;99742.06;5025473;28;20063;-62
2023/06/29 06:05:24;;;;;;;4.03;1.00;;;;;;;12.43;100.00;99788.59;5037498;28;20056;-61
2023/06/29 06:08:01;;;;;;;1.08;0.98;;;;;;;12.39;100.00;99802.69;5027837;28;20727;-63
2023/06/29 06:10:37;;;;;;;2.92;1.00;;;;;;;12.30;100.00;99808.19;5037993;28;20056;-64
2023/06/29 06:13:14;;;;;;;3.83;1.10;;;;;;;12.26;100.00;99801.34;5015303;28;20411;-63
2023/06/29 06:15:55;;;;;;;1.92;1.20;;;;;;;12.21;100.00;99808.50;5018266;28;20056;-60
2023/06/29 06:18:36;;;;;;;1.92;1.08;;;;;;;12.16;100.00;99806.00;5029498;28;20049;-63
2023/06/29 06:21:12;;;;;;;6.30;1.30;;;;;;;12.24;100.00;99808.41;5005764;28;20056;-61
2023/06/29 06:23:46;;;;;;;3.30;1.15;;;;;;;12.18;100.00;99805.94;5009673;28;20059;-62
2023/06/29 06:26:22;;;;;;;3.63;1.15;;;;;;;12.24;100.00;99801.41;5025283;28;20044;-63
2023/06/29 06:29:01;;;;;;;2.83;1.10;;;;;;;12.25;100.00;99800.47;5026541;28;20052;-63
2023/06/29 06:31:35;;;;;;;2.80;1.23;;;;;;;12.32;100.00;99811.63;5037049;28;20143;-61
2023/06/29 06:34:07;;;;;;;2.35;1.08;;;;;;;12.22;100.00;99810.22;5026971;28;20075;-63
2023/06/29 06:36:45;;;;;;;1.60;1.00;;;;;;;12.23;100.00;99815.41;5031420;28;20416;-62
2023/06/29 06:39:23;;;;;;;2.67;1.00;;;;;;;12.19;100.00;99820.78;5041722;28;20044;-64
2023/06/29 06:41:56;;;;;;;2.75;1.00;;;;;;;12.15;100.00;99824.38;5031909;28;20114;-62
2023/06/29 06:44:31;;;;;;;3.20;1.10;;;;;;;12.06;100.00;99820.28;5017855;28;20122;-63
2023/06/29 06:47:04;;;;;;;2.05;1.13;;;;;;;12.08;100.00;99829.81;5017341;28;20630;-61
2023/06/29 06:49:36;;;;;;;6.13;1.10;;;;;;;12.08;100.00;99835.06;5029081;28;20045;-62
2023/06/29 06:52:11;;;;;;;1.27;1.00;;;;;;;12.00;100.00;99829.16;5032406;28;20048;-62
2023/06/29 06:54:45;;;;;;;1.45;1.08;;;;;;;11.94;100.00;99821.50;5021472;28;20045;-62
2023/06/29 06:57:18;;;;;;;2.33;1.13;;;;;;;12.01;100.00;99822.19;5032242;28;20081;-63
2023/06/29 07:00:00;;;;;;;1.88;1.13;;;;;;;11.74;100.00;99781.94;5023323;28;20048;-62
2023/06/29 07:02:33;;;;;;;2.17;1.35;;;;;;;11.99;100.00;99822.22;5042047;28;20053;-62
2023/06/29 07:05:07;;;;;;;2.33;1.50;;;;;;;12.00;100.00;99826.53;5031108;28;20101;-63
2023/06/29 07:07:53;;;;;;;1.98;1.08;;;;;;;11.89;100.00;99823.41;5030877;28;20048;-59
2023/06/29 07:10:45;;;;;;;3.10;1.10;;;;;;;11.86;100.00;99828.69;5041035;28;20048;-59
2023/06/29 07:13:22;;;;;;;0.85;0.70;;;;;;;11.81;100.00;99815.72;5039593;28;20060;-60
2023/06/29 07:16:00;;;;;;;2.83;0.85;;;;;;;11.76;100.00;99827.25;5030621;28;20105;-64
2023/06/29 07:18:36;;;;;;;2.00;0.90;;;;;;;11.70;100.00;99835.25;5040412;28;20045;-60
2023/06/29 07:21:09;;;;;;;2.88;0.90;;;;;;;11.72;100.00;99826.44;5031195;28;20048;-63
2023/06/29 07:23:46;;;;;;;2.80;0.80;;;;;;;11.69;100.00;99817.84;5031004;28;20075;-60
2023/06/29 07:26:23;;;;;;;1.50;0.90;;;;;;;11.73;100.00;99837.78;5041270;28;20059;-63
2023/06/29 07:28:56;;;;;;;1.13;0.82;;;;;;;11.71;100.00;99823.91;5028978;28;20142;-64
2023/06/29 07:31:29;;;;;;;5.45;0.93;;;;;;;11.72;100.00;99831.69;5040988;28;20442;-62
2023/06/29 07:34:04;;;;;;;1.33;0.93;;;;;;;11.68;100.00;99826.56;5029490;28;20068;-59
2023/06/29 07:36:40;;;;;;;1.27;0.80;;;;;;;11.65;100.00;99820.53;5030137;28;20153;-60
2023/06/29 07:39:16;;;;;;;0.80;0.80;;;;;;;11.65;100.00;99828.38;5039814;28;20053;-62
2023/06/29 07:41:49;;;;;;;2.08;0.88;;;;;;;11.66;100.00;99829.25;5030470;28;20083;-60
2023/06/29 07:44:23;;;;;;;1.75;1.00;;;;;;;11.62;100.00;99815.38;5039887;28;20487;-65
2023/06/29 07:46:59;;;;;;;1.45;1.00;;;;;;;11.59;100.00;99820.69;5030540;28;20057;-64
2023/06/29 07:49:37;;;;;;;2.10;1.05;;;;;;;11.62;100.00;99815.38;5040823;28;20060;-59
2023/06/29 07:52:15;;;;;;;2.33;1.17;;;;;;;11.69;100.00;99825.69;5030587;28;20570;-61
2023/06/29 07:54:49;;;;;;;2.38;1.10;;;;;;;11.71;100.00;99834.38;5029835;28;20487;-62
2023/06/29 07:57:26;;;;;;;2.00;1.30;;;;;;;11.50;100.00;99802.63;5040418;28;20120;-62
2023/06/29 08:00:02;;;;;;;4.00;1.13;;;;;;;11.70;100.00;99822.16;5013780;28;20056;-59
2023/06/29 08:02:34;;;;;;;2.58;1.13;;;;;;;11.68;100.00;99829.19;5032250;28;20195;-63
2023/06/29 08:05:07;;;;;;;2.88;1.20;;;;;;;11.72;100.00;99822.97;5018370;28;20056;-60
2023/06/29 08:07:45;;;;;;;1.75;1.20;;;;;;;11.69;100.00;99815.22;5018503;28;20514;-61
2023/06/29 08:10:23;;;;;;;3.17;1.20;;;;;;;11.63;100.00;99821.47;5039993;28;20048;-61
2023/06/29 08:13:01;;;;;;;4.22;1.38;;;;;;;11.65;100.00;99828.38;5030520;28;20056;-62
2023/06/29 08:15:36;;;;;;;3.97;1.77;;;;;;;11.63;100.00;99824.97;5040323;28;20048;-59
2023/06/29 08:18:11;;;;;;;5.82;1.83;;;;;;;11.57;100.00;99827.72;5013014;28;20134;-63
2023/06/29 08:20:45;;;;;;;4.15;1.75;;;;;;;11.51;100.00;99827.06;5030606;28;20430;-61
2023/06/29 08:23:18;;;;;;;3.47;2.25;;;;;;;11.16;100.00;99785.25;5039402;28;20064;-63
2023/06/29 08:25:52;;;;;;;4.20;2.28;;;;;;;11.38;100.00;99840.47;5028509;28;20052;-63
2023/06/29 08:28:25;;;;;;;5.55;2.45;;;;;;;11.39;100.00;99836.09;5039771;28;20080;-63
2023/06/29 08:30:59;;;;;;;4.07;2.30;;;;;;;11.38;100.00;99834.34;5029165;28;20056;-61
2023/06/29 08:33:37;;;;;;;5.38;2.60;;;;;;;11.38;100.00;99842.19;5034054;28;20133;-61
2023/06/29 08:36:11;;;;;;;6.78;2.45;;;;;;;11.31;100.00;99840.69;5039905;28;20120;-61
2023/06/29 08:38:54;;;;;;;6.47;2.35;;;;;;;11.28;100.00;99836.34;5029704;28;20569;-64
2023/06/29 08:41:28;;;;;;;3.22;2.10;;;;;;;11.22;100.00;99853.06;5008126;28;20132;-63
2023/06/29 08:44:04;;;;;;;4.65;2.60;;;;;;;11.20;100.00;99849.63;5020469;28;20048;-62
2023/06/29 08:46:40;;;;;;;5.80;2.80;;;;;;;11.18;100.00;99856.69;5020488;28;20971;-63
2023/06/29 08:49:19;;;;;;;8.73;2.45;;;;;;;11.19;100.00;99863.63;5030567;28;20052;-61
2023/06/29 08:51:55;;;;;;;5.47;2.58;;;;;;;11.15;100.00;99858.50;5020241;28;20083;-65
2023/06/29 08:54:31;;;;;;;10.30;3.35;;;;;;;11.14;100.00;99849.81;5030136;28;20049;-60
2023/06/29 08:57:09;;;;;;;6.38;2.30;;;;;;;11.07;100.00;99853.47;5028729;28;20048;-62
2023/06/29 08:59:44;;;;;;;8.10;2.75;;;;;;;11.03;100.00;99846.56;5029530;28;20067;-62
2023/06/29 09:02:19;;;;;;;5.85;2.50;;;;;;;10.74;100.00;99798.50;5039492;28;20479;-61
2023/06/29 09:04:51;;;;;;;7.15;2.65;;;;;;;10.97;100.00;99851.97;5028741;28;20084;-60
2023/06/29 09:07:24;;;;;;;4.35;2.40;;;;;;;10.95;100.00;99845.91;5039675;28;20122;-63
2023/06/29 09:10:04;;;;;;;7.32;2.72;;;;;;;10.93;100.00;99850.31;5028460;28;20579;-60
2023/06/29 09:12:46;;;;;;;4.03;2.15;;;;;;;10.47;100.00;99778.28;5012427;28;20056;-63
2023/06/29 09:15:28;;;;;;;9.73;2.38;;;;;;;10.88;100.00;99849.56;5038390;28;20063;-63
2023/06/29 09:17:58;;;;;;;3.65;2.17;;;;;;;10.83;100.00;99859.28;5027815;28;20064;-58
2023/06/29 09:24:19;;;;;;;4.85;1.73;;;;;;;10.88;100.00;99852.19;4947404;28;20090;-59
2023/06/29 09:27:08;;;;;;;6.32;1.80;;;;;;;10.77;100.00;99835.00;5019930;28;20049;-61
2023/06/29 09:29:52;;;;;;;7.28;2.05;;;;;;;10.85;100.00;99844.44;5028672;28;20459;-58
2023/06/29 09:32:31;;;;;;;7.00;1.80;;;;;;;10.84;100.00;99847.94;5039162;28;20067;-59
2023/06/29 09:35:19;;;;;;;3.95;1.80;;;;;;;10.79;100.00;99833.22;5027764;28;20053;-59
2023/06/29 09:38:03;;;;;;;2.83;1.55;;;;;;;10.89;100.00;99839.09;5027547;28;20056;-61
2023/06/29 09:40:52;;;;;;;4.05;1.40;;;;;;;10.85;100.00;99833.97;5029307;28;20143;-58
2023/06/29 09:43:24;;;;;;;4.97;1.17;;;;;;;10.83;100.00;99841.84;5038511;28;20052;-63
2023/06/29 09:46:52;;;;;;;2.40;1.15;;;;;;;10.74;100.00;99842.94;5026733;28;20447;-63
2023/06/29 09:49:51;;;;;;;1.42;1.08;;;;;;;10.58;100.00;99818.03;4927790;28;20053;-62
2023/06/29 09:52:23;;;;;;;1.85;1.13;;;;;;;10.72;100.00;99836.88;4948119;28;20054;-62
2023/06/29 09:54:59;;;;;;;4.38;0.90;;;;;;;10.72;100.00;99846.47;4938385;28;20417;-61
2023/06/29 09:57:31;;;;;;;1.73;1.15;;;;;;;10.69;100.00;99842.19;4946881;28;20064;-64
2023/06/29 10:00:09;;;;;;;2.55;0.90;;;;;;;10.67;100.00;99848.34;4947644;28;20136;-64
2023/06/29 10:02:41;;;;;;;1.70;1.30;;;;;;;10.61;100.00;99857.19;4930672;28;20059;-63
2023/06/29 10:05:15;;;;;;;2.33;1.30;;;;;;;10.57;100.00;99855.53;4951342;28;20571;-63
2023/06/29 10:07:47;;;;;;;3.95;0.98;;;;;;;10.53;100.00;99852.13;4945769;28;20622;-60
2023/06/29 10:10:19;;;;;;;2.58;1.52;;;;;;;10.53;100.00;99846.03;4948400;28;20134;-62
2023/06/29 10:12:56;;;;;;;3.45;1.25;;;;;;;10.47;100.00;99835.75;4946526;28;20070;-60
2023/06/29 10:15:28;;;;;;;1.85;1.20;;;;;;;10.45;100.00;99834.91;4957012;28;20065;-64
2023/06/29 10:18:06;;;;;;;4.28;1.33;;;;;;;10.42;100.00;99848.03;4939966;28;20545;-60
2023/06/29 10:20:43;;;;;;;3.85;1.25;;;;;;;10.36;100.00;99856.88;4928246;28;20050;-61
2023/06/29 10:23:18;;;;;;;1.50;1.15;;;;;;;10.43;100.00;99852.38;4956045;28;20054;-60
2023/06/29 10:25:53;;;;;;;3.03;1.10;;;;;;;10.38;100.00;99846.38;4960645;28;20471;-61
2023/06/29 10:28:25;;;;;;;5.05;1.20;;;;;;;10.24;100.00;99849.28;5037883;28;20058;-63
2023/06/29 10:31:01;;;;;;;10.55;1.98;;;;;;;10.32;100.00;99857.84;5026903;28;21234;-62
2023/06/29 10:33:32;;;;;;;5.70;1.20;;;;;;;10.31;100.00;99851.75;5038056;28;20401;-62
2023/06/29 10:36:06;;;;;;;2.63;1.20;;;;;;;10.21;100.00;99844.97;5028131;28;20048;-59
2023/06/29 10:38:39;;;;;;;3.25;1.50;;;;;;;10.24;100.00;99859.72;5027905;28;20131;-62
2023/06/29 10:41:27;;;;;;;3.90;1.40;;;;;;;10.30;100.00;99865.69;5037959;28;20371;-64
2023/06/29 10:44:00;;;;;;;4.63;1.33;;;;;;;10.28;100.00;99867.50;5026752;28;20044;-62
2023/06/29 10:46:47;;;;;;;3.70;1.40;;;;;;;10.26;100.00;99874.47;5037912;28;20752;-61
2023/06/29 10:49:28;;;;;;;2.60;1.60;;;;;;;9.96;100.00;99836.81;5037558;28;20394;-64
2023/06/29 10:52:06;;;;;;;1.90;1.50;;;;;;;9.96;100.00;99831.59;5027749;28;20560;-63
2023/06/29 10:54:38;;;;;;;1.75;1.20;;;;;;;10.22;100.00;99871.94;5027660;28;20044;-61
2023/06/29 10:57:10;;;;;;;1.85;1.45;;;;;;;10.19;100.00;99862.44;5037537;28;20048;-61
2023/06/29 10:59:43;;;;;;;3.88;1.30;;;;;;;10.07;100.00;99847.03;5027627;28;20611;-61
2023/06/29 11:02:15;;;;;;;3.10;1.40;;;;;;;10.20;100.00;99864.13;5037419;28;20040;-63
2023/06/29 11:04:48;;;;;;;3.88;1.35;;;;;;;10.10;100.00;99852.16;5026996;28;20125;-63
2023/06/29 11:07:24;;;;;;;2.35;1.15;;;;;;;10.12;100.00;99863.44;5037567;28;20041;-63
2023/06/29 11:10:02;;;;;;;9.27;1.30;;;;;;;10.11;100.00;99866.97;5027050;28;20042;-65
2023/06/29 11:12:34;;;;;;;2.78;1.08;;;;;;;10.11;100.00;99882.63;5037534;28;20052;-59
2023/06/29 11:15:07;;;;;;;3.08;1.08;;;;;;;10.08;100.00;99895.72;5018366;28;20667;-63
2023/06/29 11:17:59;;;;;;;2.05;1.27;;;;;;;10.07;100.00;99894.88;5027860;28;20052;-59
2023/06/29 11:20:31;;;;;;;5.55;1.20;;;;;;;10.09;100.00;99907.91;5037293;28;20143;-62
2023/06/29 11:23:04;;;;;;;3.78;1.52;;;;;;;10.09;100.00;99897.47;5030325;28;20052;-59
2023/06/29 11:25:38;;;;;;;4.82;1.20;;;;;;;9.88;100.00;99870.91;5037435;28;20437;-60
2023/06/29 11:28:10;;;;;;;1.42;0.98;;;;;;;10.00;100.00;99897.63;5039946;28;20519;-60
2023/06/29 11:30:42;;;;;;;3.22;1.25;;;;;;;9.97;100.00;99895.09;5031587;28;20065;-63
2023/06/29 11:33:16;;;;;;;6.20;1.42;;;;;;;9.97;100.00;99895.09;5041800;28;20049;-64
2023/06/29 11:36:04;;;;;;;2.25;1.40;;;;;;;9.96;100.00;99896.84;5023257;28;20068;-61
2023/06/29 11:38:37;;;;;;;2.78;1.27;;;;;;;9.98;100.00;99894.19;5041641;28;20063;-62
2023/06/29 11:41:09;;;;;;;8.13;1.40;;;;;;;9.99;100.00;99903.75;5031624;28;20044;-58
2023/06/29 11:43:42;;;;;;;3.10;1.45;;;;;;;10.04;100.00;99910.59;5030317;28;20133;-61
2023/06/29 11:46:14;;;;;;;2.75;1.30;;;;;;;9.84;100.00;99871.84;5040518;28;20062;-63
2023/06/29 11:48:57;;;;;;;2.20;1.45;;;;;;;10.00;100.00;99913.28;5029755;28;20059;-63
2023/06/29 11:51:30;;;;;;;1.58;1.33;;;;;;;9.71;100.00;99859.94;5041284;28;20391;-61
2023/06/29 11:54:04;;;;;;;2.45;1.40;;;;;;;9.92;100.00;99903.84;5030424;28;20048;-61
2023/06/29 11:56:38;;;;;;;3.40;1.20;;;;;;;9.59;100.00;99844.50;5037487;28;20080;-59
2023/06/29 11:59:12;;;;;;;2.35;1.60;;;;;;;9.90;100.00;99903.03;5041227;28;20072;-61
2023/06/29 12:01:45;;;;;;;3.08;1.58;;;;;;;9.72;100.00;99866.84;5030872;28;20843;-61
2023/06/29 12:04:16;;;;;;;2.45;1.40;;;;;;;9.98;100.00;99902.00;5041541;28;20052;-60
2023/06/29 12:06:56;;;;;;;3.10;1.63;;;;;;;9.94;100.00;99903.84;5031037;28;20152;-61